Thunder radar more information blitzortung!


Radar de pluja more information rain snow radar


Visita la nostra xarxa de llocs de meteo:

Template documentation
and downloads

And another site



No particular awareness of the weather is required.    There are no Weather-warnings

Pagina Historial Weather Underground text

Diari Resum Juny 23, 2017 Unitats:  Mètric    Imperial   Tant
« Previous Dia
SegĂźent Dia »
Diari Setmana Mensual Anual Personalitzada
  Maxima: Minima: Media:
Temperatura: -17.8 °C -6 °C -1.9 °C
Punt de rosada: -17.8 °C -10.6 °C -9.3 °C
Humitat: Humidity % 31 % 46 %
Wind Speed: 0 km/h 0 km/h 14.5 km/h
RĂ fegues de vent: 0 km/h - -
Vent:- - SW
Pression baro: 0 hPa 34361.1 hPa -
Precipitacions: 0 mm    
Historical Graphs
 
 
Dades de taula per Juny 23, 2017
Temps Temperatura Punt de rosada Pression baro Vent Wind Speed RĂ fegues de vent Humitat Rainfall Rate (Hourly)
-17.8 °C -17.8 °C 0 hPa Calm     Humidity % 0 mm
00:01 -4.3 °C -10.5 °C 34462.7 hPa SW 10.3 km/h 10.3 km/h 50 % 0 mm
00:05 -5.3 °C -9.6 °C 34462.7 hPa West 5.1 km/h 10.3 km/h 62 % 0 mm
00:06 -4.4 °C -10.4 °C 34462.7 hPa SSW 9 km/h 9 km/h 51 % 0 mm
00:15 -5.4 °C -9.6 °C 34462.7 hPa WSW 5.1 km/h 7.7 km/h 62 % 0 mm
00:25 -5.4 °C -9.7 °C 34462.7 hPa West 5.1 km/h 7.7 km/h 62 % 0 mm
00:35 -5.5 °C -9.7 °C 34462.7 hPa West 2.6 km/h 5.1 km/h 62 % 0 mm
00:45 -5.6 °C -9.7 °C 34462.7 hPa Calm   2.6 km/h 63 % 0 mm
00:55 -5.7 °C -9.8 °C 34462.7 hPa Calm     63 % 0 mm
01:05 -5.7 °C -9.8 °C 34462.7 hPa WNW 2.6 km/h 5.1 km/h 63 % 0 mm
01:15 -5.7 °C -9.9 °C 34462.7 hPa WNW 2.6 km/h 5.1 km/h 62 % 0 mm
01:25 -5.7 °C -9.9 °C 34462.7 hPa West 5.1 km/h 5.1 km/h 62 % 0 mm
01:35 -5.6 °C -9.8 °C 34462.7 hPa West 2.6 km/h 7.7 km/h 62 % 0 mm
01:45 -5.6 °C -9.7 °C 34462.7 hPa West 2.6 km/h 5.1 km/h 63 % 0 mm
01:55 -5.6 °C -9.6 °C 34428.8 hPa WNW 2.6 km/h 5.1 km/h 64 % 0 mm
02:05 -5.6 °C -10.1 °C 34462.7 hPa NNW 2.6 km/h 7.7 km/h 60 % 0 mm
02:15 -5.4 °C -10.1 °C 34462.7 hPa Calm   2.6 km/h 59 % 0 mm
02:25 -5.3 °C -9.9 °C 34462.7 hPa Calm   5.1 km/h 59 % 0 mm
02:35 -4.8 °C -9.7 °C 34428.8 hPa NNW 2.6 km/h 5.1 km/h 58 % 0 mm
02:45 -4.6 °C -9.5 °C 34428.8 hPa Calm   5.1 km/h 58 % 0 mm
02:55 -4.7 °C -9.6 °C 34462.7 hPa WNW 2.6 km/h 5.1 km/h 58 % 0 mm
03:05 -4.6 °C -9.4 °C 34462.7 hPa West 2.6 km/h 7.7 km/h 58 % 0 mm
03:15 -4.4 °C -9.2 °C 34462.7 hPa WSW 5.1 km/h 5.1 km/h 59 % 0 mm
03:25 -4.4 °C -9.1 °C 34462.7 hPa West 5.1 km/h 10.3 km/h 59 % 0 mm
03:35 -4.2 °C -8.8 °C 34462.7 hPa WSW 2.6 km/h 7.7 km/h 60 % 0 mm
03:45 -4.1 °C -8.7 °C 34462.7 hPa SW 5.1 km/h 7.7 km/h 60 % 0 mm
03:55 -3.9 °C -8.7 °C 34496.6 hPa WSW 5.1 km/h 7.7 km/h 59 % 0 mm
04:05 -3.7 °C -8.6 °C 34462.7 hPa WSW 7.7 km/h 7.7 km/h 58 % 0 mm
04:15 -3.6 °C -8.7 °C 34462.7 hPa WSW 7.7 km/h 10.3 km/h 57 % 0 mm
04:25 -3.3 °C -8.7 °C 34496.6 hPa WSW 7.7 km/h 15.6 km/h 55 % 0 mm
04:35 -3 °C -8.4 °C 34496.6 hPa WSW 5.1 km/h 10.3 km/h 55 % 0 mm
04:45 -2.8 °C -8.6 °C 34496.6 hPa WSW 7.7 km/h 7.7 km/h 53 % 0 mm
04:55 -2.6 °C -8.5 °C 34496.6 hPa WSW 5.1 km/h 10.3 km/h 52 % 0 mm
05:05 -2.3 °C -8.4 °C 34496.6 hPa WSW 5.1 km/h 10.3 km/h 51 % 0 mm
05:15 -2.2 °C -8.5 °C 34496.6 hPa WSW 5.1 km/h 10.3 km/h 50 % 0 mm
05:25 -1.8 °C -8.4 °C 34496.6 hPa WSW 5.1 km/h 10.3 km/h 49 % 0 mm
10:36 -1.2 °C -8.6 °C 34496.6 hPa SW 12.7 km/h 12.7 km/h 45 % 0 mm
10:41 -1.1 °C -8.6 °C 34496.6 hPa SSW 9 km/h 9 km/h 44 % 0 mm
10:46 -0.9 °C -8.7 °C 34496.6 hPa South 15 km/h 15 km/h 43 % 0 mm
10:51 -0.9 °C -8.8 °C 34496.6 hPa West 11.9 km/h 11.9 km/h 42 % 0 mm
10:56 -0.7 °C -8.7 °C 34496.6 hPa SW 11.9 km/h 11.9 km/h 42 % 0 mm
11:01 -0.6 °C -8.8 °C 34496.6 hPa SW 11.9 km/h 11.9 km/h 41 % 0 mm
11:06 -0.3 °C -8.5 °C 34496.6 hPa South 11.9 km/h 11.9 km/h 41 % 0 mm
11:11 -0.3 °C -8.7 °C 34496.6 hPa SE 15 km/h 15 km/h 40 % 0 mm
11:16 -0.2 °C -8.5 °C 34462.7 hPa WSW 15 km/h 15 km/h 41 % 0 mm
11:21 -0.2 °C -8.7 °C 34462.7 hPa SSW 17.9 km/h 17.9 km/h 40 % 0 mm
11:26 0.1 °C -8.4 °C 34462.7 hPa WSW 9.3 km/h 9.3 km/h 40 % 0 mm
11:31 0 °C -8.7 °C 34496.6 hPa SW 20.9 km/h 20.9 km/h 39 % 0 mm
11:36 0.1 °C -8.8 °C 34496.6 hPa WSW 9 km/h 9 km/h 38 % 0 mm
11:41 0.2 °C -9 °C 34496.6 hPa SW 16.1 km/h 16.1 km/h 37 % 0 mm
11:46 0.1 °C -9.3 °C 34462.7 hPa West 20.9 km/h 20.9 km/h 36 % 0 mm
11:51 0.1 °C -9.1 °C 34462.7 hPa SW 19.6 km/h 19.6 km/h 37 % 0 mm
11:56 0.2 °C -9 °C 34462.7 hPa South 20.9 km/h 20.9 km/h 37 % 0 mm
12:01 0.6 °C -8.9 °C 34462.7 hPa WSW 11.9 km/h 11.9 km/h 36 % 0 mm
12:06 0.7 °C -8.8 °C 34462.7 hPa East 15 km/h 15 km/h 36 % 0 mm
12:11 0.8 °C -8.7 °C 34462.7 hPa SW 15 km/h 15 km/h 36 % 0 mm
12:16 0.9 °C -8.6 °C 34428.8 hPa WSW 11.9 km/h 11.9 km/h 36 % 0 mm
12:21 0.8 °C -9 °C 34428.8 hPa SW 15 km/h 15 km/h 35 % 0 mm
12:26 0.7 °C -9.3 °C 34428.8 hPa SW 17.9 km/h 17.9 km/h 34 % 0 mm
12:31 0.8 °C -8.9 °C 34462.7 hPa WSW 17.9 km/h 17.9 km/h 35 % 0 mm
12:36 1.3 °C -8.5 °C 34462.7 hPa SW 9 km/h 9 km/h 35 % 0 mm
12:41 1.3 °C -8.8 °C 34462.7 hPa SW 17.9 km/h 17.9 km/h 34 % 0 mm
12:46 1.1 °C -9 °C 34462.7 hPa SSW 26.9 km/h 26.9 km/h 34 % 0 mm
12:51 0.9 °C -9.1 °C 34462.7 hPa WSW 29.8 km/h 29.8 km/h 34 % 0 mm
12:56 1.1 °C -9 °C 34462.7 hPa South 23.8 km/h 23.8 km/h 34 % 0 mm
13:01 1.3 °C -8.8 °C 34462.7 hPa WSW 15 km/h 15 km/h 34 % 0 mm
13:06 1.1 °C -8.9 °C 34462.7 hPa SSE 32.8 km/h 32.8 km/h 34 % 0 mm
13:11 1.4 °C -8.7 °C 34462.7 hPa SW 15 km/h 15 km/h 34 % 0 mm
13:16 1.4 °C -8.9 °C 34462.7 hPa WSW 15 km/h 15 km/h 33 % 0 mm
13:21 1.3 °C -9.3 °C 34462.7 hPa SSW 23.8 km/h 23.8 km/h 32 % 0 mm
13:26 1.3 °C -9.6 °C 34462.7 hPa SW 15 km/h 15 km/h 31 % 0 mm
13:31 1.4 °C -9.2 °C 34462.7 hPa SW 17.9 km/h 17.9 km/h 32 % 0 mm
13:36 1.5 °C -9.4 °C 34462.7 hPa SW 20.9 km/h 20.9 km/h 31 % 0 mm
13:41 1.5 °C -9.4 °C 34462.7 hPa SW 15 km/h 15 km/h 31 % 0 mm
13:46 1.5 °C -9.4 °C 34462.7 hPa SSW 15 km/h 15 km/h 31 % 0 mm
13:51 1.5 °C -9.4 °C 34462.7 hPa WSW 16.1 km/h 16.1 km/h 31 % 0 mm
13:56 1.3 °C -9.6 °C 34462.7 hPa SSW 23.8 km/h 23.8 km/h 31 % 0 mm
14:01 1.4 °C -9.5 °C 34462.7 hPa WSW 25.1 km/h 25.1 km/h 31 % 0 mm
14:06 1.6 °C -9.3 °C 34462.7 hPa West 17.9 km/h 17.9 km/h 31 % 0 mm
14:11 1.5 °C -9.4 °C 34462.7 hPa SSW 20.3 km/h 20.3 km/h 31 % 0 mm
14:16 1.6 °C -9.3 °C 34462.7 hPa SW 15 km/h 15 km/h 31 % 0 mm
14:21 1.4 °C -9.5 °C 34462.7 hPa SSW 20.9 km/h 20.9 km/h 31 % 0 mm
14:26 1.5 °C -9.1 °C 34462.7 hPa West 17.9 km/h 17.9 km/h 32 % 0 mm
14:31 1.5 °C -9.1 °C 34428.8 hPa SSW 15 km/h 15 km/h 32 % 0 mm
14:36 1.7 °C -9.3 °C 34428.8 hPa West 22.5 km/h 22.5 km/h 31 % 0 mm
14:39 1.4 °C -9.2 °C 34428.8 hPa SW 17.9 km/h 17.9 km/h 32 % 0 mm
14:44 1.6 °C -8.8 °C 34428.8 hPa SW 17.9 km/h 17.9 km/h 33 % 0 mm
14:49 1.5 °C -8.8 °C 34428.8 hPa West 20.9 km/h 20.9 km/h 33 % 0 mm
14:54 1.6 °C -8.8 °C 34428.8 hPa West 23.8 km/h 23.8 km/h 33 % 0 mm
14:59 1.4 °C -8.7 °C 34395 hPa SW 29.8 km/h 29.8 km/h 34 % 0 mm
15:04 1.2 °C -8.6 °C 34395 hPa WSW 32.8 km/h 32.8 km/h 35 % 0 mm
15:09 1.2 °C -8.7 °C 34395 hPa SW 25.9 km/h 25.9 km/h 35 % 0 mm
15:14 1.1 °C -8.4 °C 34395 hPa SW 26.9 km/h 26.9 km/h 36 % 0 mm
15:19 1 °C -8.5 °C 34395 hPa WSW 26.9 km/h 26.9 km/h 36 % 0 mm
15:24 0.8 °C -8.7 °C 34395 hPa SSW 29.8 km/h 29.8 km/h 36 % 0 mm
15:29 1.1 °C -8.5 °C 34395 hPa South 19.6 km/h 19.6 km/h 36 % 0 mm
15:34 1 °C -8.5 °C 34395 hPa SSW 20.9 km/h 20.9 km/h 36 % 0 mm
15:39 1 °C -8.5 °C 34395 hPa West 29.8 km/h 29.8 km/h 36 % 0 mm
15:44 0.8 °C -8.9 °C 34395 hPa West 26.9 km/h 26.9 km/h 35 % 0 mm
15:49 0.9 °C -8.8 °C 34395 hPa West 23.8 km/h 23.8 km/h 35 % 0 mm
15:54 0.8 °C -8.9 °C 34395 hPa SW 32.8 km/h 32.8 km/h 35 % 0 mm
15:59 1 °C -8.5 °C 34361.1 hPa SW 20.3 km/h 20.3 km/h 36 % 0 mm
16:04 0.8 °C -8.9 °C 34361.1 hPa SW 33.6 km/h 33.6 km/h 35 % 0 mm
16:09 0.6 °C -8.9 °C 34361.1 hPa SSW 32.8 km/h 32.8 km/h 36 % 0 mm
16:14 0.7 °C -8.8 °C 34395 hPa SW 32.8 km/h 32.8 km/h 36 % 0 mm
16:19 0.7 °C -8.8 °C 34395 hPa SW 25.9 km/h 25.9 km/h 36 % 0 mm
16:24 0.4 °C -8.8 °C 34395 hPa WSW 27.7 km/h 27.7 km/h 37 % 0 mm
16:29 0.7 °C -8.6 °C 34395 hPa SW 28.2 km/h 28.2 km/h 37 % 0 mm
16:34 0.6 °C -8.7 °C 34395 hPa South 26.9 km/h 26.9 km/h 37 % 0 mm
16:39 0.4 °C -8.6 °C 34395 hPa West 20.9 km/h 20.9 km/h 38 % 0 mm
16:44 0.4 °C -8.4 °C 34395 hPa WSW 29.8 km/h 29.8 km/h 39 % 0 mm
16:49 0.3 °C -8.4 °C 34395 hPa WSW 20.9 km/h 20.9 km/h 39 % 0 mm
16:54 0.3 °C -8.4 °C 34395 hPa SSW 32.8 km/h 32.8 km/h 39 % 0 mm
16:59 0.3 °C -8.2 °C 34395 hPa SW 23.8 km/h 23.8 km/h 40 % 0 mm
17:04 0.4 °C -8.1 °C 34395 hPa WSW 22.5 km/h 22.5 km/h 40 % 0 mm
17:09 0.2 °C -8.3 °C 34395 hPa WSW 23.8 km/h 23.8 km/h 40 % 0 mm
17:14 0.2 °C -8.6 °C 34361.1 hPa SW 35.7 km/h 35.7 km/h 39 % 0 mm
17:19 0.2 °C -8.5 °C 34361.1 hPa SW 23.8 km/h 23.8 km/h 39 % 0 mm
17:24 0.2 °C -8.5 °C 34361.1 hPa SSW 26.9 km/h 26.9 km/h 39 % 0 mm
17:29 0.2 °C -8.6 °C 34395 hPa SSW 27.2 km/h 27.2 km/h 39 % 0 mm
17:34 0.1 °C -8.7 °C 34395 hPa SW 26.9 km/h 26.9 km/h 39 % 0 mm
17:39 0.1 °C -8.6 °C 34395 hPa West 20.9 km/h 20.9 km/h 39 % 0 mm
17:44 -0.1 °C -8.8 °C 34395 hPa WSW 29.8 km/h 29.8 km/h 39 % 0 mm
17:49 -0.2 °C -9.1 °C 34395 hPa WSW 20.9 km/h 20.9 km/h 38 % 0 mm
17:54 -0.4 °C -9.1 °C 34395 hPa SW 38.8 km/h 38.8 km/h 39 % 0 mm
17:59 -0.3 °C -9 °C 34395 hPa South 23.8 km/h 23.8 km/h 39 % 0 mm
18:04 -0.3 °C -9 °C 34395 hPa SW 31.9 km/h 31.9 km/h 39 % 0 mm
18:09 -0.4 °C -9.1 °C 34395 hPa WSW 31.9 km/h 31.9 km/h 39 % 0 mm
18:14 -0.6 °C -9.1 °C 34395 hPa SW 20.9 km/h 20.9 km/h 40 % 0 mm
18:19 -0.6 °C -9 °C 34395 hPa SW 26.9 km/h 26.9 km/h 40 % 0 mm
18:24 -0.6 °C -8.8 °C 34395 hPa SSW 15 km/h 15 km/h 41 % 0 mm
18:29 -0.4 °C -8.9 °C 34395 hPa SSW 25.4 km/h 25.4 km/h 40 % 0 mm
18:34 -0.5 °C -8.9 °C 34395 hPa SW 29.8 km/h 29.8 km/h 40 % 0 mm
18:36 -0.6 °C -9 °C 34395 hPa WSW 23.8 km/h 23.8 km/h 40 % 0 mm
18:41 -0.6 °C -9 °C 34395 hPa SSW 31.4 km/h 31.4 km/h 40 % 0 mm
18:46 -0.7 °C -9.1 °C 34395 hPa South 32.3 km/h 32.3 km/h 40 % 0 mm
18:51 -0.8 °C -9.2 °C 34395 hPa SSW 23.8 km/h 23.8 km/h 40 % 0 mm
18:56 -0.7 °C -9.1 °C 34395 hPa WSW 23.8 km/h 23.8 km/h 40 % 0 mm
19:01 -0.8 °C -9.2 °C 34395 hPa SW 26.9 km/h 26.9 km/h 40 % 0 mm
19:06 -0.8 °C -9 °C 34395 hPa WSW 16.1 km/h 16.1 km/h 41 % 0 mm
19:11 -0.9 °C -9.1 °C 34395 hPa SW 15 km/h 15 km/h 41 % 0 mm
19:16 -0.9 °C -9.1 °C 34395 hPa SW 20.3 km/h 20.3 km/h 41 % 0 mm
19:21 -1.1 °C -9.4 °C 34395 hPa SW 26.9 km/h 26.9 km/h 40 % 0 mm
19:25 -4.6 °C -9.6 °C 34462.7 hPa WSW 5.1 km/h 5.1 km/h 57 % 0 mm
19:26 -1.2 °C -9.3 °C 34395 hPa West 26.9 km/h 26.9 km/h 41 % 0 mm
19:31 -1.3 °C -9.4 °C 34395 hPa WSW 32.8 km/h 32.8 km/h 41 % 0 mm
19:35 -4.7 °C -9.6 °C 34462.7 hPa SW 5.1 km/h 7.7 km/h 58 % 0 mm
19:36 -1.3 °C -9.5 °C 34395 hPa SSW 20.9 km/h 20.9 km/h 41 % 0 mm
19:41 -1.4 °C -9.6 °C 34395 hPa SW 26.9 km/h 26.9 km/h 41 % 0 mm
19:45 -4.8 °C -9.5 °C 34462.7 hPa WSW 5.1 km/h 5.1 km/h 59 % 0 mm
19:46 -1.5 °C -9.6 °C 34395 hPa SSW 20.9 km/h 20.9 km/h 41 % 0 mm
19:51 -1.6 °C -9.5 °C 34395 hPa South 20.9 km/h 20.9 km/h 42 % 0 mm
19:55 -4.8 °C -9.4 °C 34462.7 hPa SW 5.1 km/h 5.1 km/h 60 % 0 mm
19:56 -1.7 °C -9.6 °C 34395 hPa SW 17.9 km/h 17.9 km/h 42 % 0 mm
20:01 -1.7 °C -9.3 °C 34361.1 hPa SW 15.3 km/h 15.3 km/h 43 % 0 mm
20:05 -4.8 °C -9.4 °C 34462.7 hPa WSW 5.1 km/h 7.7 km/h 60 % 0 mm
20:06 -1.8 °C -9.3 °C 34361.1 hPa SW 9 km/h 9 km/h 44 % 0 mm
20:11 -1.8 °C -9.4 °C 34361.1 hPa West 17.9 km/h 17.9 km/h 43 % 0 mm
20:15 -4.9 °C -9.3 °C 34462.7 hPa West 2.6 km/h 5.1 km/h 61 % 0 mm
20:16 -1.9 °C -9.6 °C 34361.1 hPa WSW 23.8 km/h 23.8 km/h 43 % 0 mm
20:21 -1.9 °C -9.6 °C 34361.1 hPa SSW 15 km/h 15 km/h 43 % 0 mm
20:25 -4.9 °C -9.3 °C 34462.7 hPa WSW 5.1 km/h 5.1 km/h 61 % 0 mm
20:26 -2.1 °C -9.9 °C 34361.1 hPa SSW 15 km/h 15 km/h 42 % 0 mm
20:31 -2.1 °C -9.9 °C 34361.1 hPa SW 9 km/h 9 km/h 42 % 0 mm
20:35 -5 °C -9.3 °C 34428.8 hPa West 2.6 km/h 5.1 km/h 62 % 0 mm
20:36 -2.2 °C -10 °C 34361.1 hPa South 11.9 km/h 11.9 km/h 42 % 0 mm
20:41 -2.2 °C -10.1 °C 34361.1 hPa WNW 11.9 km/h 11.9 km/h 42 % 0 mm
20:45 -5 °C -9.3 °C 34428.8 hPa West 2.6 km/h 5.1 km/h 62 % 0 mm
20:46 -2.3 °C -10.4 °C 34395 hPa South 15 km/h 15 km/h 41 % 0 mm
20:51 -2.4 °C -10.4 °C 34395 hPa SW 9 km/h 9 km/h 41 % 0 mm
20:55 -5 °C -9.3 °C 34462.7 hPa West 2.6 km/h 5.1 km/h 62 % 0 mm
20:56 -2.4 °C -10.4 °C 34395 hPa SW 9 km/h 9 km/h 41 % 0 mm
21:01 -2.5 °C -10.5 °C 34395 hPa SW 11.9 km/h 11.9 km/h 41 % 0 mm
21:05 -5 °C -9.3 °C 34462.7 hPa West 5.1 km/h 5.1 km/h 62 % 0 mm
21:06 -2.6 °C -10.6 °C 34395 hPa WSW 17.9 km/h 17.9 km/h 41 % 0 mm
21:11 -2.7 °C -10.5 °C 34395 hPa WSW 32.8 km/h 32.8 km/h 42 % 0 mm
21:15 -5.1 °C -9.3 °C 34462.7 hPa West 5.1 km/h 5.1 km/h 62 % 0 mm
21:16 -2.8 °C -10.6 °C 34395 hPa SW 15 km/h 15 km/h 42 % 0 mm
21:21 -2.8 °C -10.4 °C 34395 hPa SW 15 km/h 15 km/h 43 % 0 mm
21:25 -5.1 °C -9.2 °C 34462.7 hPa West 2.6 km/h 10.3 km/h 63 % 0 mm
21:26 -2.9 °C -10.3 °C 34395 hPa SW 15 km/h 15 km/h 44 % 0 mm
21:31 -3.1 °C -10.4 °C 34395 hPa SW 9.8 km/h 9.8 km/h 44 % 0 mm
21:35 -5.1 °C -9.2 °C 34462.7 hPa West 2.6 km/h 7.7 km/h 63 % 0 mm
21:36 -3.1 °C -10.3 °C 34395 hPa SW 15 km/h 15 km/h 45 % 0 mm
21:41 -3.2 °C -10.3 °C 34395 hPa WSW 12.7 km/h 12.7 km/h 45 % 0 mm
21:45 -5.1 °C -9.1 °C 34462.7 hPa West 5.1 km/h 7.7 km/h 64 % 0 mm
21:46 -3.3 °C -10.4 °C 34395 hPa SW 11.9 km/h 11.9 km/h 45 % 0 mm
21:51 -3.3 °C -10.3 °C 34395 hPa SW 11.9 km/h 11.9 km/h 46 % 0 mm
21:55 -5.1 °C -9.1 °C 34462.7 hPa WSW 5.1 km/h 7.7 km/h 64 % 0 mm
21:56 -3.4 °C -10.3 °C 34395 hPa East 15 km/h 15 km/h 46 % 0 mm
22:01 -3.4 °C -10.2 °C 34395 hPa West 9.3 km/h 9.3 km/h 47 % 0 mm
22:05 -5.2 °C -9 °C 34462.7 hPa WSW 2.6 km/h 5.1 km/h 65 % 0 mm
22:06 -3.5 °C -10.2 °C 34395 hPa WSW 6 km/h 6 km/h 47 % 0 mm
22:11 -3.6 °C -10.1 °C 34395 hPa SSW 6 km/h 6 km/h 48 % 0 mm
22:15 -5.2 °C -9.1 °C 34462.7 hPa Calm   5.1 km/h 65 % 0 mm
22:16 -3.7 °C -10.2 °C 34395 hPa WSW 9 km/h 9 km/h 48 % 0 mm
22:21 -3.7 °C -10.1 °C 34395 hPa SW 11.9 km/h 11.9 km/h 49 % 0 mm
22:25 -5.3 °C -9.1 °C 34462.7 hPa Calm   2.6 km/h 66 % 0 mm
22:26 -3.7 °C -10.1 °C 34395 hPa WSW 6 km/h 6 km/h 49 % 0 mm
22:31 -3.8 °C -10.1 °C 34428.8 hPa WSW 15 km/h 15 km/h 50 % 0 mm
22:35 -5.5 °C -9.2 °C 34462.7 hPa Calm     66 % 0 mm
22:36 -3.8 °C -10.1 °C 34428.8 hPa SW 9 km/h 9 km/h 50 % 0 mm
22:41 -3.9 °C -9.9 °C 34428.8 hPa SW 11.9 km/h 11.9 km/h 51 % 0 mm
22:45 -5.6 °C -9.1 °C 34462.7 hPa Calm     68 % 0 mm
22:46 -3.9 °C -9.8 °C 34428.8 hPa SW 6 km/h 6 km/h 52 % 0 mm
22:51 -3.9 °C -9.8 °C 34428.8 hPa SW 6 km/h 6 km/h 52 % 0 mm
22:55 -5.7 °C -9 °C 34462.7 hPa Calm     69 % 0 mm
22:56 -4 °C -9.8 °C 34428.8 hPa SW 6.3 km/h 6.3 km/h 52 % 0 mm
23:01 -4.1 °C -9.7 °C 34462.7 hPa SW 9 km/h 9 km/h 53 % 0 mm
23:02 -4.1 °C -9.7 °C 34462.7 hPa SW 9 km/h 9 km/h 53 % 0 mm
23:05 -5.8 °C -9.1 °C 34462.7 hPa Calm     69 % 0 mm
23:07 -4.1 °C -9.8 °C 34462.7 hPa West 6 km/h 6 km/h 53 % 0 mm
23:12 -4.1 °C -9.8 °C 34462.7 hPa WSW 6 km/h 6 km/h 53 % 0 mm
23:15 -5.8 °C -9.1 °C 34462.7 hPa Calm     69 % 0 mm
23:17 -4.2 °C -9.8 °C 34462.7 hPa West 9 km/h 9 km/h 53 % 0 mm
23:22 -4.2 °C -9.9 °C 34462.7 hPa WSW 9 km/h 9 km/h 53 % 0 mm
23:25 -5.9 °C -9.1 °C 34428.8 hPa SW 2.6 km/h 2.6 km/h 70 % 0 mm
23:27 -4.3 °C -9.9 °C 34462.7 hPa West 6 km/h 6.3 km/h 53 % 0 mm
23:32 -4.3 °C -9.8 °C 34462.7 hPa WSW 6 km/h 6 km/h 54 % 0 mm
23:35 -5.9 °C -9 °C 34428.8 hPa Calm   5.1 km/h 71 % 0 mm
23:37 -4.3 °C -9.8 °C 34462.7 hPa WSW 9 km/h 9 km/h 54 % 0 mm
23:42 -4.3 °C -9.8 °C 34462.7 hPa WNW 9 km/h 9 km/h 54 % 0 mm
23:45 -6 °C -9.1 °C 34428.8 hPa Calm     71 % 0 mm
23:47 -4.3 °C -9.8 °C 34462.7 hPa SW 6 km/h 6 km/h 54 % 0 mm
23:52 -4.4 °C -9.9 °C 34462.7 hPa West 6 km/h 6 km/h 54 % 0 mm
23:55 -6 °C -9.1 °C 34428.8 hPa WSW 2.6 km/h 2.6 km/h 71 % 0 mm
23:57 -4.4 °C -9.9 °C 34462.7 hPa West 6 km/h 6 km/h 54 % 0 mm
Meteo Sesrovires
Elogis d' Weather Underground - 1.5 mb

Guio original per  Jim McMurry - jmcmurry@mwt.net Adaptat per a la plantilla per  Wim van der Kuil - Leuven-Template.eu

Trobareu la nostra informacio del temps tambe a:

Weather Underground

AWEKAS